»·PEaware :: N117CY E25-KHND

N117CY :: E25-KHND

FLIGHT INFORMATION

Flight Status: Arrived
Operator: Privately registered:
United States
More flights under this callsign
Pilot: Utku A. (15598)
Aircraft: SOCATA TBM-900
(TBM9)
More flights by this aircraft type
Origin: E25 Wickenburg Mun
United States
Destination: KHND Henderson
United States
More flights between these airports :: More routes between these airports
Route: +IGM
File this flight plan on PilotEdge
Remarks: MEDEVAC FLIGHT - 1 PATIENT ABOARD
Altitude:
(Current/Filed)
14,000ft
Speed:
(Current/Filed)
260kts
Departed: 08-Nov-18 06:41 PM
Arrived: 08-Nov-18 07:34 PM
Distance/Time
Traveled:
167nm/0:52
Distance/Time
To Go:
Arrived

Flight Plot

Page will automatically refresh every two minutes.

Flight plan parsing failed; only flown route is shown


Map Options




Map Legend


Flown Route
Filed Route
Departure Airport
Arrival Airport
Navaid (VOR, NDB)
Fix

Horizontal Profiles

Position Reports

Time Latitude Longitude Heading Altitude Ground
Speed
08-Nov-18 18:32 33.965814 -112.802648 332 2338ft 0kts
08-Nov-18 18:33 33.965814 -112.802648 332 2338ft 0kts
08-Nov-18 18:34 33.965814 -112.802648 332 2338ft 0kts
08-Nov-18 18:35 33.965814 -112.802648 332 2338ft 0kts
08-Nov-18 18:36 33.965814 -112.802648 332 2338ft 0kts
08-Nov-18 18:37 33.965814 -112.802648 332 2338ft 0kts
08-Nov-18 18:38 33.965814 -112.802648 332 2338ft 0kts
08-Nov-18 18:39 33.965814 -112.802648 332 2338ft 0kts
08-Nov-18 18:40 33.965814 -112.802648 332 2338ft 0kts
08-Nov-18 18:41 33.966258 -112.802171 16 2338ft 7kts
08-Nov-18 18:42 33.966521 -112.802120 340 2338ft 0kts
08-Nov-18 18:43 33.966629 -112.802187 331 2338ft 3kts
08-Nov-18 18:44 33.976137 -112.785255 33 3104ft 114kts
08-Nov-18 18:45 34.010462 -112.774668 1 5057ft 151kts
08-Nov-18 18:46 34.053500 -112.759171 19 6956ft 168kts
08-Nov-18 18:47 34.098468 -112.740472 19 9115ft 174kts
08-Nov-18 18:48 34.139357 -112.760047 316 11021ft 190kts
08-Nov-18 18:49 34.180237 -112.803842 319 13131ft 202kts
08-Nov-18 18:50 34.226583 -112.851706 320 14149ft 251kts
08-Nov-18 18:51 34.282692 -112.909517 322 14151ft 272kts
08-Nov-18 18:52 34.337256 -112.965827 322 14138ft 239kts
08-Nov-18 18:53 34.385325 -113.015452 322 14144ft 220kts
08-Nov-18 18:54 34.430798 -113.062537 321 14144ft 211kts
08-Nov-18 18:55 34.475179 -113.108570 321 14145ft 209kts
08-Nov-18 18:56 34.519130 -113.154204 321 14145ft 208kts
08-Nov-18 18:57 34.562835 -113.200121 316 14143ft 209kts
08-Nov-18 18:58 34.602264 -113.251860 314 14150ft 209kts
08-Nov-18 18:59 34.641425 -113.304158 314 14159ft 209kts
08-Nov-18 19:00 34.680224 -113.356126 314 14166ft 209kts
08-Nov-18 19:01 34.719177 -113.408387 314 14171ft 209kts
08-Nov-18 19:02 34.758094 -113.460678 314 14171ft 209kts
08-Nov-18 19:03 34.796950 -113.512968 314 14171ft 209kts
08-Nov-18 19:04 34.835868 -113.565419 314 14171ft 209kts
08-Nov-18 19:05 34.874773 -113.617934 314 14171ft 209kts
08-Nov-18 19:06 34.913033 -113.669697 315 14171ft 209kts
08-Nov-18 19:07 34.952237 -113.722772 315 14171ft 211kts
08-Nov-18 19:08 34.985255 -113.767532 316 14170ft 214kts
08-Nov-18 19:09 35.025278 -113.821866 316 14170ft 217kts
08-Nov-18 19:10 35.066015 -113.877247 316 14171ft 220kts
08-Nov-18 19:11 35.105489 -113.931017 316 14174ft 221kts
08-Nov-18 19:12 35.146493 -113.986959 316 14175ft 222kts
08-Nov-18 19:13 35.194643 -114.052771 316 14174ft 222kts
08-Nov-18 19:14 35.229021 -114.099833 316 14175ft 222kts
08-Nov-18 19:15 35.270034 -114.156120 317 14196ft 222kts
08-Nov-18 19:16 35.311324 -114.212766 317 14203ft 224kts
08-Nov-18 19:17 35.352837 -114.269873 317 14196ft 225kts
08-Nov-18 19:18 35.394398 -114.327146 317 14178ft 225kts
08-Nov-18 19:26 35.749849 -114.820928 315 10191ft 230kts
08-Nov-18 19:27 35.791376 -114.879105 315 10185ft 219kts
08-Nov-18 19:28 35.830543 -114.934068 315 10180ft 196kts
08-Nov-18 19:29 35.862091 -114.978375 316 9981ft 166kts
08-Nov-18 19:30 35.869375 -115.036344 261 8661ft 194kts
08-Nov-18 19:31 35.858657 -115.102332 261 6847ft 199kts
08-Nov-18 19:32 35.861036 -115.164063 299 5934ft 164kts
08-Nov-18 19:33 35.890648 -115.155672 67 4937ft 130kts
08-Nov-18 19:34 35.919438 -115.136834 9 3879ft 141kts
08-Nov-18 19:35 35.946980 -115.135879 5 2956ft 74kts
08-Nov-18 19:36 35.968228 -115.135520 5 2450ft 59kts
08-Nov-18 19:37 35.974795 -115.136921 0 2447ft 10kts
08-Nov-18 19:38 35.976817 -115.137968 358 2447ft 2kts
08-Nov-18 19:39 35.976839 -115.137969 359 2447ft 0kts

Navigation Log

Ident Type
Flight plan parsing failed, navigation log unavailable